Kelleys Island, Ohio
Current Conditions -  °F | °C
As of 6:33 AM on Thursday 27 Nov 2014 (Local Time) from KPCW Reporting Station
Unknown Precip Unknown Precip  
Wind Chill: 24°   Ceiling: 3500
Heat Index: 34°   Visibility: 10mi
Dew Point: 27°   Wind: 14mph
Humidity: 75%   Direction: 350°N
Pressure: 30.1"   Gusts: NA
Location:  41.6°N, 82.71°W
Report Text: KPCW 271133Z AUTO 35012KT 10SM UP OVC035 01/M03 A3010 RMK AO2 UPB00 $
Loading
Personal Weather Stations






























Interactive Weather Map New forecast layout! Learn more

10-Day Weather Forecast

Advertisements
Track Severe Weather on mobile